Terminal Aerodrome Forecast
Issued by NWS

Current Version | Previous Version | Text Only | Print | Product List | Glossary On
Versions: 1 2 3 4 5 6 7 8 9 10 11 12 13 14 15 16 17 18 19 20 21
245
FTUS43 KGRB 271124
TAFMTW
TAF
KMTW 271124Z 2712/2812 32003KT P6SM OVC005
      TEMPO 2712/2715 3SM BR SCT005 OVC014
     FM271500 34002KT P6SM OVC009
     FM271800 VRB03KT P6SM OVC010
     FM280100 03004KT P6SM OVC008
     FM280600 01006KT P6SM OVC013=

USA.gov is the U.S. government's official web portal to all federal, state and local government web resources and services.